Time;durP1;ratioP1;P1;durP2;ratioP2;P2;SDS_P1;SDS_P2;PMS_P1;PMS_P2;Temp;Humidity;BMP_temperature;BMP_pressure;BME280_temperature;BME280_humidity;BME280_pressure;Samples;Min_cycle;Max_cycle;Signal;HPM_P1;HPM_P2
2022/06/22 05:23:08;;;;;;;;;11.33;11.33;;;;;23.21;51.28;100629.66;5065957;27;47184;-75
2022/06/22 05:25:35;;;;;;;;;11.33;10.33;;;;;23.36;51.61;100629.81;5058749;27;45713;-72
2022/06/22 05:28:03;;;;;;;;;9.67;9.67;;;;;23.57;51.36;100623.06;5060153;28;45790;-73
2022/06/22 05:30:35;;;;;;;;;10.33;9.67;;;;;23.79;51.14;100611.47;5064639;28;45570;-74
2022/06/22 05:33:09;;;;;;;;;11.00;11.00;;;;;24.10;51.19;100625.31;5065845;28;45936;-72
2022/06/22 05:35:40;;;;;;;;;16.00;15.00;;;;;24.34;48.82;100611.66;5064074;28;46060;-74
2022/06/22 05:38:09;;;;;;;;;16.33;16.00;;;;;24.55;47.39;100615.59;5062126;28;45548;-74
2022/06/22 05:40:36;;;;;;;;;12.67;12.67;;;;;24.74;47.13;100616.16;5063516;28;46767;-75
2022/06/22 05:43:01;;;;;;;;;16.67;15.00;;;;;24.95;47.02;100609.25;5064216;28;46092;-72
2022/06/22 05:45:33;;;;;;;;;11.00;11.00;;;;;25.17;47.53;100601.28;5064790;27;45803;-74
2022/06/22 05:47:58;;;;;;;;;12.33;11.67;;;;;25.38;47.40;100606.00;5067669;28;45530;-74
2022/06/22 05:50:43;;;;;;;;;9.33;9.00;;;;;25.61;47.24;100613.28;5061764;27;50316;-74
2022/06/22 05:53:27;;;;;;;;;11.67;11.67;;;;;25.84;47.17;100607.78;5065684;28;46110;-74
2022/06/22 05:55:55;;;;;;;;;11.33;11.33;;;;;26.04;46.92;100616.19;5060858;27;45562;-73
2022/06/22 05:58:33;;;;;;;;;10.33;9.00;;;;;26.18;47.55;100616.38;5066198;27;45607;-71
2022/06/22 06:01:02;;;;;;;;;9.67;9.00;;;;;26.24;47.47;100626.47;5063778;28;45502;-72
2022/06/22 06:03:43;;;;;;;;;12.33;12.33;;;;;26.28;46.98;100630.53;5062186;28;45685;-75
2022/06/22 06:06:17;;;;;;;;;12.33;12.33;;;;;26.30;46.34;100633.09;5065464;28;45846;-76
2022/06/22 06:08:49;;;;;;;;;13.67;11.67;;;;;26.30;46.10;100625.78;5060582;28;45425;-78
2022/06/22 06:11:19;;;;;;;;;16.00;13.00;;;;;26.30;46.30;100631.22;5063580;28;45603;-76
2022/06/22 06:13:50;;;;;;;;;14.33;14.00;;;;;26.30;45.56;100639.38;5053903;28;46227;-76
2022/06/22 06:16:25;;;;;;;;;14.67;13.33;;;;;26.27;45.54;100645.19;5057324;28;45827;-74
2022/06/22 06:18:52;;;;;;;;;14.33;13.67;;;;;26.28;45.33;100648.75;5063239;28;45376;-75
2022/06/22 06:21:25;;;;;;;;;12.33;12.33;;;;;26.28;45.66;100638.69;5071759;27;45716;-75
2022/06/22 06:24:00;;;;;;;;;14.67;14.67;;;;;26.22;44.99;100625.84;5080453;27;46279;-74
2022/06/22 06:29:35;;;;;;;;;16.33;15.33;;;;;26.30;45.20;100631.22;5077415;27;45548;-73
2022/06/22 06:32:25;;;;;;;;;13.00;13.00;;;;;26.26;44.60;100626.31;5074765;27;46135;-75
2022/06/22 06:34:56;;;;;;;;;17.00;16.00;;;;;26.20;44.77;100621.63;5068777;28;46398;-75
2022/06/22 06:37:31;;;;;;;;;16.00;16.00;;;;;26.13;44.65;100624.25;5068090;28;45443;-74
2022/06/22 06:39:58;;;;;;;;;17.33;15.67;;;;;26.08;44.80;100630.28;5070763;28;45481;-75
2022/06/22 06:43:09;;;;;;;;;16.67;16.67;;;;;26.02;44.31;100636.44;5068528;28;45481;-75
2022/06/22 06:45:35;;;;;;;;;16.67;15.00;;;;;25.97;44.11;100626.16;5050746;28;45518;-75
2022/06/22 06:48:06;;;;;;;;;13.00;13.00;;;;;26.03;44.36;100640.84;5073319;28;45443;-78
2022/06/22 06:50:47;;;;;;;;;15.67;15.67;;;;;26.09;44.45;100640.13;5071991;28;45574;-76
2022/06/22 06:53:36;;;;;;;;;18.33;17.67;;;;;26.11;44.10;100659.78;5068475;27;50791;-76
2022/06/22 06:56:30;;;;;;;;;15.33;14.33;;;;;26.16;44.30;100670.13;5068762;28;45327;-76
2022/06/22 06:59:02;;;;;;;;;16.67;15.67;;;;;26.17;44.13;100669.91;5065961;28;45605;-76
2022/06/22 07:01:33;;;;;;;;;15.00;13.67;;;;;26.17;44.09;100658.22;5071718;28;45786;-78
2022/06/22 07:04:05;;;;;;;;;15.00;13.33;;;;;26.14;44.31;100645.81;5068196;27;45399;-81
2022/06/22 07:06:31;;;;;;;;;17.33;15.33;;;;;26.07;44.14;100633.19;5071571;28;46426;-78
2022/06/22 07:09:02;;;;;;;;;14.00;14.00;;;;;26.17;44.12;100648.16;5070258;28;45627;-78
2022/06/22 07:11:40;;;;;;;;;15.67;15.67;;;;;26.17;43.97;100661.75;5072323;28;45427;-76
2022/06/22 07:14:13;;;;;;;;;13.67;12.67;;;;;26.17;43.70;100663.66;5065264;28;45315;-76
2022/06/22 07:16:39;;;;;;;;;17.33;15.33;;;;;26.17;43.52;100666.38;5064311;28;47459;-77
2022/06/22 07:19:16;;;;;;;;;16.67;14.33;;;;;26.17;43.79;100666.38;5064437;28;45541;-78
2022/06/22 07:21:49;;;;;;;;;13.33;13.33;;;;;26.16;43.54;100665.50;5053117;28;45678;-77
2022/06/22 07:25:05;;;;;;;;;13.67;13.67;;;;;26.20;43.57;100663.28;5071388;28;45419;-78
2022/06/22 07:27:37;;;;;;;;;15.33;13.67;;;;;26.18;43.91;100652.59;5045285;28;46171;-80
2022/06/22 07:30:25;;;;;;;;;14.33;14.33;;;;;26.22;43.80;100661.19;5026768;28;45721;-79
2022/06/22 07:33:17;;;;;;;;;14.67;14.67;;;;;26.23;43.38;100667.50;5025313;28;45717;-80
2022/06/22 07:36:01;;;;;;;;;16.33;15.00;;;;;26.23;43.71;100678.38;5032545;28;45524;-79
2022/06/22 07:38:40;;;;;;;;;14.33;13.67;;;;;26.20;43.13;100678.75;5027943;28;45544;-79
2022/06/22 07:41:18;;;;;;;;;16.33;15.00;;;;;26.16;43.30;100681.00;5027674;28;45449;-77
2022/06/22 07:43:48;;;;;;;;;13.67;13.67;;;;;26.16;43.66;100679.13;5027179;28;45428;-78
2022/06/22 07:46:35;;;;;;;;;13.67;13.67;;;;;26.17;43.49;100685.41;5026060;28;45517;-77
2022/06/22 07:49:15;;;;;;;;;14.33;13.33;;;;;26.20;43.70;100684.19;5015857;28;46439;-80
2022/06/22 07:51:48;;;;;;;;;18.67;17.33;;;;;26.18;43.79;100687.09;5029785;28;45562;-86
2022/06/22 07:54:24;;;;;;;;;17.67;15.67;;;;;26.16;43.63;100686.44;5032360;28;45524;-84
2022/06/22 07:57:05;;;;;;;;;18.67;17.33;;;;;26.15;43.38;100684.72;5024862;28;45718;-84
2022/06/22 07:59:47;;;;;;;;;16.67;16.67;;;;;26.13;43.63;100686.81;5024914;28;46410;-85
2022/06/22 08:02:19;;;;;;;;;16.33;15.33;;;;;26.12;43.59;100685.13;5035158;28;45508;-80
2022/06/22 08:04:51;;;;;;;;;15.67;15.67;;;;;26.10;43.35;100674.44;5069138;28;45365;-81
2022/06/22 08:07:24;;;;;;;;;18.00;16.67;;;;;26.09;43.40;100672.75;5071014;28;45435;-84
2022/06/22 08:09:59;;;;;;;;;20.67;19.67;;;;;26.04;42.99;100664.31;5063413;28;45523;-83
2022/06/22 08:12:33;;;;;;;;;18.00;17.67;;;;;26.04;43.22;100667.84;5051905;28;45511;-84
2022/06/22 08:15:05;;;;;;;;;18.00;18.00;;;;;26.04;43.73;100688.78;5066608;28;46257;-83
2022/06/22 08:18:03;;;;;;;;;17.33;16.33;;;;;26.04;43.64;100696.94;5070924;28;45641;-84
2022/06/22 08:20:36;;;;;;;;;18.00;17.33;;;;;26.02;43.32;100697.13;4989034;28;45962;-85
2022/06/22 08:23:04;;;;;;;;;17.00;16.00;;;;;25.99;43.61;100689.34;4989699;28;45816;-86
2022/06/22 08:25:31;;;;;;;;;17.67;17.67;;;;;25.97;43.85;100682.41;4986801;28;46745;-88
2022/06/22 08:27:57;;;;;;;;;18.00;18.00;;;;;26.03;43.98;100689.78;4987724;28;45563;-75
2022/06/22 08:30:23;;;;;;;;;17.33;16.67;;;;;26.03;43.44;100692.50;4990826;28;45750;-77
2022/06/22 08:33:01;;;;;;;;;16.33;16.33;;;;;26.05;43.89;100694.03;4974431;28;45639;-75
2022/06/22 08:35:34;;;;;;;;;18.33;17.00;;;;;26.08;43.35;100695.53;4987352;28;48602;-75
2022/06/22 08:38:29;;;;;;;;;16.33;16.00;;;;;26.10;43.59;100703.50;4987807;28;51821;-78
2022/06/22 08:41:06;;;;;;;;;18.67;17.67;;;;;26.08;43.60;100697.41;4987518;28;45558;-76
2022/06/22 08:43:45;;;;;;;;;16.00;14.00;;;;;26.09;43.37;100691.78;4986158;28;45985;-77
2022/06/22 08:46:29;;;;;;;;;16.00;16.00;;;;;26.13;43.33;100694.97;4986051;28;48978;-77
2022/06/22 08:49:06;;;;;;;;;16.33;16.33;;;;;26.10;43.96;100687.19;4987156;28;47215;-77
2022/06/22 08:51:49;;;;;;;;;16.00;16.00;;;;;26.13;43.85;100687.66;4988221;28;46159;-78
2022/06/22 08:54:32;;;;;;;;;15.33;14.67;;;;;26.17;43.72;100690.84;4991620;28;45429;-78
2022/06/22 08:57:23;;;;;;;;;17.67;16.67;;;;;26.18;43.65;100695.25;5058674;28;45453;-78
2022/06/22 08:59:54;;;;;;;;;16.00;15.67;;;;;26.19;43.41;100699.66;5066131;28;45424;-78
2022/06/22 09:03:04;;;;;;;;;15.67;14.00;;;;;26.20;43.29;100701.38;5061732;28;45546;-77
2022/06/22 09:05:45;;;;;;;;;14.67;13.00;;;;;26.22;43.49;100702.00;4967196;28;45516;-75
2022/06/22 09:08:28;;;;;;;;;15.33;15.33;;;;;26.25;43.32;100701.66;4969985;28;45520;-75
2022/06/22 09:11:02;;;;;;;;;15.67;15.67;;;;;26.28;43.27;100701.28;4967656;28;45498;-78
2022/06/22 09:13:40;;;;;;;;;16.67;14.33;;;;;26.30;43.72;100699.22;4967142;28;46996;-80
2022/06/22 09:16:25;;;;;;;;;16.00;16.00;;;;;26.30;43.25;100696.50;4967321;28;45499;-80
2022/06/22 09:19:06;;;;;;;;;18.33;18.00;;;;;26.34;43.20;100687.94;4967908;28;45372;-78
2022/06/22 09:21:42;;;;;;;;;16.33;15.33;;;;;26.34;43.20;100696.97;4968001;28;45775;-78
2022/06/22 09:24:21;;;;;;;;;15.67;15.67;;;;;26.35;43.83;100695.09;4970111;28;45610;-82
2022/06/22 09:27:06;;;;;;;;;15.33;15.33;;;;;26.35;43.07;100700.53;4969169;28;46238;-77
2022/06/22 09:30:00;;;;;;;;;17.00;15.00;;;;;26.36;43.27;100697.59;4967673;28;45518;-75
2022/06/22 09:32:48;;;;;;;;;13.33;13.33;;;;;26.42;43.12;100702.31;4965186;28;46766;-78
2022/06/22 09:35:35;;;;;;;;;15.67;15.67;;;;;26.53;43.70;100708.31;4963556;28;46222;-79
2022/06/22 09:38:09;;;;;;;;;15.00;14.67;;;;;26.65;42.81;100701.31;4963433;28;45578;-80
2022/06/22 09:40:41;;;;;;;;;19.00;16.00;;;;;26.80;43.21;100700.44;4966118;28;46115;-81
2022/06/22 09:43:46;;;;;;;;;14.33;14.33;;;;;26.91;42.63;100707.28;5052693;28;45604;-80
2022/06/22 09:46:42;;;;;;;;;10.00;10.00;;;;;27.03;42.45;100697.59;5039221;28;46122;-79
2022/06/22 09:49:29;;;;;;;;;14.33;14.00;;;;;27.12;42.79;100697.47;5066133;28;45410;-79
2022/06/22 09:52:03;;;;;;;;;10.67;10.67;;;;;27.18;42.43;100693.97;5068053;28;45807;-79
2022/06/22 09:57:57;;;;;;;;;13.67;13.67;;;;;27.35;41.84;100692.66;5065012;28;45488;-78
2022/06/22 10:00:36;;;;;;;;;12.33;12.33;;;;;27.43;42.45;100697.13;5063591;27;45502;-79
2022/06/22 10:03:39;;;;;;;;;15.33;12.00;;;;;27.49;41.93;100709.13;5070139;27;45439;-81
2022/06/22 10:06:23;;;;;;;;;17.00;13.67;;;;;27.55;41.67;100710.25;5071171;28;45416;-80
2022/06/22 10:09:11;;;;;;;;;16.33;14.67;;;;;27.57;41.67;100711.72;5065269;28;45455;-79
2022/06/22 10:12:15;;;;;;;;;12.33;12.33;;;;;27.60;42.01;100705.06;5065590;27;45434;-80
2022/06/22 10:15:18;;;;;;;;;13.67;13.33;;;;;27.62;42.18;100692.94;5065397;27;45348;-78
2022/06/22 10:18:01;;;;;;;;;13.00;13.00;;;;;27.68;41.66;100696.75;5064682;28;45582;-77
2022/06/22 10:20:40;;;;;;;;;15.33;13.67;;;;;27.67;41.70;100695.03;5069334;28;46183;-77
2022/06/22 10:23:27;;;;;;;;;14.00;14.00;;;;;27.71;41.56;100693.63;5070475;27;45498;-75
2022/06/22 10:26:17;;;;;;;;;18.00;15.67;;;;;27.75;41.91;100683.19;5071334;28;45723;-74
2022/06/22 10:29:19;;;;;;;;;15.00;12.00;;;;;27.76;41.53;100687.59;5073579;27;45632;-74
2022/06/22 10:32:21;;;;;;;;;13.33;12.67;;;;;27.79;42.07;100672.72;5009579;28;53775;-74
2022/06/22 10:35:05;;;;;;;;;13.67;13.67;;;;;27.80;42.06;100675.25;5009312;28;45491;-75
2022/06/22 10:37:58;;;;;;;;;19.00;17.33;;;;;27.80;41.49;100677.97;4995721;28;45789;-75
2022/06/22 10:46:52;;;;;;;;;13.67;13.67;;;;;27.88;41.49;100653.25;4992981;28;46296;-76
2022/06/22 10:49:28;;;;;;;;;14.00;14.00;;;;;27.90;41.30;100654.94;5004837;28;45632;-76
2022/06/22 10:52:16;;;;;;;;;15.67;15.67;;;;;27.95;41.31;100652.47;5010317;28;45489;-76
2022/06/22 10:54:44;;;;;;;;;17.00;15.33;;;;;27.99;41.15;100645.53;4990737;28;46661;-75
2022/06/22 10:57:24;;;;;;;;;13.00;13.00;;;;;27.99;41.60;100640.09;4989183;28;45551;-76
2022/06/22 11:00:25;;;;;;;;;15.67;14.00;;;;;28.05;41.43;100642.03;4984733;28;45815;-76
2022/06/22 11:03:23;;;;;;;;;12.67;12.33;;;;;28.08;41.85;100647.06;4985132;28;45796;-76
2022/06/22 11:06:09;;;;;;;;;12.00;12.00;;;;;28.10;41.83;100655.91;4962078;28;47717;-75
2022/06/22 11:08:59;;;;;;;;;14.00;14.00;;;;;28.12;41.70;100652.97;4993268;28;46940;-76
2022/06/22 11:11:36;;;;;;;;;12.33;12.00;;;;;28.14;41.58;100656.34;5029761;28;45602;-76
2022/06/22 11:14:32;;;;;;;;;14.00;13.00;;;;;28.14;41.16;100649.00;5040561;28;45880;-76
2022/06/22 11:17:48;;;;;;;;;13.00;13.00;;;;;28.16;41.50;100657.00;5030817;28;45526;-76
2022/06/22 11:20:41;;;;;;;;;13.33;13.00;;;;;28.16;41.21;100662.44;4939258;28;47030;-76
2022/06/22 11:23:12;;;;;;;;;15.33;12.00;;;;;28.16;41.55;100665.19;4944285;28;45481;-76
2022/06/22 11:32:29;;;;;;;;;15.00;13.67;;;;;28.15;41.91;100682.56;4944793;28;47151;-76
2022/06/22 11:35:31;;;;;;;;;14.67;13.33;;;;;28.15;41.44;100683.41;4949688;28;45578;-76
2022/06/22 11:38:38;;;;;;;;;12.33;12.33;;;;;28.15;41.44;100683.41;4944876;28;46925;-76
2022/06/22 11:41:30;;;;;;;;;12.67;12.67;;;;;28.15;42.19;100688.88;4959941;28;46440;-76
2022/06/22 11:44:25;;;;;;;;;12.67;12.67;;;;;28.15;42.09;100686.16;4970843;28;47507;-76
2022/06/22 11:46:54;;;;;;;;;11.33;11.33;;;;;28.17;42.04;100696.00;4987763;28;45501;-76
2022/06/22 11:49:31;;;;;;;;;13.67;13.33;;;;;28.18;41.60;100692.22;4976759;28;45967;-76
2022/06/22 11:52:22;;;;;;;;;12.67;12.67;;;;;28.16;41.66;100700.66;4977257;28;46371;-76
2022/06/22 11:55:18;;;;;;;;;11.67;11.67;;;;;28.17;41.77;100696.00;4978924;28;45979;-75
2022/06/22 11:58:02;;;;;;;;;13.33;13.33;;;;;28.20;41.72;100692.88;5051288;27;45557;-74
2022/06/22 12:00:54;;;;;;;;;9.00;9.00;;;;;28.21;41.78;100706.34;5061163;28;45506;-74
2022/06/22 12:03:22;;;;;;;;;11.00;11.00;;;;;28.24;42.03;100696.91;5045234;28;46343;-74
2022/06/22 12:06:06;;;;;;;;;13.00;11.67;;;;;28.27;42.06;100705.56;5058652;28;46201;-75
2022/06/22 12:09:01;;;;;;;;;15.00;15.00;;;;;28.30;42.15;100701.56;5057739;27;46893;-74
2022/06/22 12:11:32;;;;;;;;;11.67;11.67;;;;;28.31;41.88;100705.16;5061273;27;45582;-74
2022/06/22 12:17:18;;;;;;;;;12.67;12.67;;;;;28.29;42.01;100713.53;5058972;28;47127;-77
2022/06/22 12:20:20;;;;;;;;;14.00;12.67;;;;;28.34;42.48;100715.66;5058516;27;54090;-82
2022/06/22 12:22:58;;;;;;;;;15.00;15.00;;;;;28.35;42.28;100709.16;5059699;27;45909;-79
2022/06/22 12:25:33;;;;;;;;;14.00;14.00;;;;;28.34;42.23;100696.56;5058494;28;46707;-78
2022/06/22 12:28:35;;;;;;;;;14.33;14.00;;;;;28.36;42.04;100697.22;5056466;27;45494;-84
2022/06/22 12:31:07;;;;;;;;;12.33;12.00;;;;;28.38;42.41;100686.91;5057669;27;46787;-77
2022/06/22 12:33:45;;;;;;;;;16.67;14.67;;;;;28.39;41.81;100681.25;5058271;27;47353;-79
2022/06/22 12:36:18;;;;;;;;;16.00;14.67;;;;;28.41;42.45;100675.59;5060071;27;47204;-76
2022/06/22 12:38:48;;;;;;;;;17.67;14.00;;;;;28.40;42.08;100679.34;5059017;27;46910;-76
2022/06/22 12:41:49;;;;;;;;;14.00;13.33;;;;;28.39;42.19;100672.22;5059386;27;47347;-76
2022/06/22 12:44:50;;;;;;;;;18.00;13.33;;;;;28.40;42.06;100677.47;4975661;28;45519;-77
2022/06/22 12:47:50;;;;;;;;;19.33;16.33;;;;;28.40;42.78;100672.00;4976524;28;45616;-77
2022/06/22 12:50:36;;;;;;;;;15.00;15.00;;;;;28.41;42.30;100672.88;4971692;28;46849;-75
2022/06/22 12:53:10;;;;;;;;;13.00;13.00;;;;;28.43;42.82;100670.75;4974487;28;54984;-75
2022/06/22 12:55:47;;;;;;;;;15.33;14.00;;;;;28.44;42.11;100674.34;4971583;28;45740;-76
2022/06/22 12:58:36;;;;;;;;;14.67;13.67;;;;;28.45;42.72;100671.44;4974393;28;45587;-75
2022/06/22 13:01:03;;;;;;;;;17.00;16.33;;;;;28.44;42.57;100672.44;4975891;28;47008;-87
2022/06/22 13:03:34;;;;;;;;;14.67;14.33;;;;;28.50;42.86;100677.13;4968935;28;45503;-80
2022/06/22 13:06:00;;;;;;;;;14.33;12.00;;;;;28.48;42.42;100676.47;4974188;28;45504;-80
2022/06/22 13:08:27;;;;;;;;;17.00;15.00;;;;;28.50;42.58;100663.47;4973248;28;46067;-80
2022/06/22 13:10:59;;;;;;;;;17.00;12.00;;;;;28.46;42.34;100655.88;4973700;28;47151;-80
2022/06/22 13:13:27;;;;;;;;;16.67;14.33;;;;;28.51;42.56;100659.69;4972313;28;45537;-80
2022/06/22 13:15:59;;;;;;;;;14.33;13.67;;;;;28.52;42.71;100655.91;4961456;28;46822;-75
2022/06/22 13:18:45;;;;;;;;;16.33;14.67;;;;;28.53;42.64;100646.66;4974499;28;46457;-75
2022/06/22 13:21:13;;;;;;;;;14.00;12.00;;;;;28.54;42.77;100637.41;5007261;27;46276;-74
2022/06/22 13:23:58;;;;;;;;;19.00;15.00;;;;;28.54;43.44;100640.13;5057545;27;45562;-74
2022/06/22 13:27:13;;;;;;;;;13.33;12.33;;;;;28.56;43.67;100630.94;5054820;28;45870;-74
2022/06/22 13:29:57;;;;;;;;;17.00;13.33;;;;;28.59;43.51;100630.50;5053066;27;46376;-75
2022/06/22 13:32:26;;;;;;;;;15.00;15.00;;;;;28.61;43.17;100625.69;5056535;28;46184;-75
2022/06/22 13:34:55;;;;;;;;;14.33;13.67;;;;;28.61;43.75;100618.31;5053849;28;46157;-75
2022/06/22 13:37:47;;;;;;;;;14.00;13.00;;;;;28.67;43.20;100609.31;5058058;28;45612;-73
2022/06/22 13:40:34;;;;;;;;;12.00;11.33;;;;;28.70;43.92;100599.88;5055491;28;46189;-74
2022/06/22 13:43:15;;;;;;;;;13.67;13.33;;;;;28.73;43.55;100584.97;5058594;28;45575;-74
2022/06/22 13:46:21;;;;;;;;;14.00;13.00;;;;;28.77;43.41;100597.16;5058707;27;45916;-73
2022/06/22 13:49:31;;;;;;;;;14.00;10.33;;;;;28.80;43.19;100594.00;5057686;28;46743;-74
2022/06/22 13:52:12;;;;;;;;;12.00;11.67;;;;;28.84;43.15;100591.69;4978579;28;46427;-75
2022/06/22 13:55:00;;;;;;;;;15.00;13.67;;;;;28.86;43.95;100587.72;4978760;28;45681;-75
2022/06/22 13:57:46;;;;;;;;;18.67;14.67;;;;;28.91;43.48;100584.38;4982002;28;45633;-74
2022/06/22 14:00:12;;;;;;;;;14.67;14.33;;;;;28.96;43.21;100573.66;4980857;28;45621;-73
2022/06/22 14:02:37;;;;;;;;;19.33;17.33;;;;;29.01;42.48;100573.88;4981157;28;46426;-75
2022/06/22 14:05:29;;;;;;;;;17.67;15.67;;;;;29.01;43.00;100554.75;4982967;28;45581;-74
2022/06/22 14:08:15;;;;;;;;;15.33;13.33;;;;;29.03;43.08;100547.19;4985559;28;45476;-78
2022/06/22 14:11:03;;;;;;;;;15.67;15.67;;;;;28.76;43.30;100554.50;4977661;28;45845;-74
2022/06/22 14:13:38;;;;;;;;;13.67;13.67;;;;;28.36;44.50;100547.91;4988443;28;46281;-75
2022/06/22 14:16:09;;;;;;;;;15.00;15.00;;;;;28.09;45.01;100550.56;4989313;28;45477;-74
2022/06/22 14:18:45;;;;;;;;;17.33;17.33;;;;;27.90;45.62;100548.59;4989932;28;45379;-75
2022/06/22 14:21:39;;;;;;;;;19.00;17.33;;;;;27.75;45.90;100538.66;4990098;28;45552;-74
2022/06/22 14:24:29;;;;;;;;;15.00;15.00;;;;;27.64;46.39;100541.94;4945849;28;47629;-74
2022/06/22 14:27:26;;;;;;;;;16.67;16.00;;;;;27.56;46.29;100538.31;4984552;28;45814;-74
2022/06/22 14:30:04;;;;;;;;;14.33;14.00;;;;;27.53;46.88;100543.31;4989953;28;45633;-74
2022/06/22 14:32:56;;;;;;;;;17.33;16.00;;;;;27.50;46.85;100536.38;4987539;28;45756;-74
2022/06/22 14:35:45;;;;;;;;;18.33;16.67;;;;;27.44;46.73;100539.91;4977301;28;45657;-78
2022/06/22 14:38:13;;;;;;;;;17.33;17.00;;;;;27.35;46.53;100531.88;4977283;28;47043;-75
2022/06/22 14:41:20;;;;;;;;;17.33;15.33;;;;;27.28;47.23;100528.28;4979710;28;45495;-75
2022/06/22 14:44:12;;;;;;;;;17.67;17.67;;;;;27.20;46.87;100512.94;4980588;28;45551;-76
2022/06/22 14:46:59;;;;;;;;;13.33;13.33;;;;;27.15;47.35;100509.13;4978522;28;52100;-75
2022/06/22 14:49:41;;;;;;;;;17.67;14.67;;;;;27.11;47.44;100511.41;4973363;28;54379;-75
2022/06/22 14:52:32;;;;;;;;;17.67;16.67;;;;;27.09;47.77;100517.06;4975974;28;45646;-76
2022/06/22 14:55:07;;;;;;;;;17.67;17.00;;;;;27.08;47.42;100504.47;4972731;28;46151;-75
2022/06/22 14:57:38;;;;;;;;;18.33;16.00;;;;;27.05;47.65;100499.41;4978576;28;46205;-75
2022/06/22 15:00:24;;;;;;;;;19.33;18.67;;;;;27.02;46.96;100516.13;4980487;28;45836;-75
2022/06/22 15:03:35;;;;;;;;;18.67;16.00;;;;;26.99;47.25;100526.59;4982711;28;46206;-75
2022/06/22 15:06:18;;;;;;;;;18.33;16.67;;;;;26.95;47.82;100537.91;4971891;28;45619;-76
2022/06/22 15:08:54;;;;;;;;;16.33;16.33;;;;;26.92;47.87;100532.81;4996873;28;45640;-78
2022/06/22 15:14:36;;;;;;;;;16.33;15.33;;;;;26.90;47.68;100539.50;4986599;28;46269;-78
2022/06/22 15:17:10;;;;;;;;;17.00;17.00;;;;;26.87;48.00;100557.06;4993615;28;45587;-77
2022/06/22 15:19:42;;;;;;;;;16.67;15.33;;;;;26.86;47.66;100569.00;4994794;28;45615;-77
2022/06/22 15:22:13;;;;;;;;;18.00;16.33;;;;;26.82;47.22;100564.97;4994823;28;50197;-77
2022/06/22 15:25:05;;;;;;;;;18.00;15.33;;;;;26.83;47.72;100575.69;5003380;28;45495;-77
2022/06/22 15:27:42;;;;;;;;;18.00;17.00;;;;;26.80;47.18;100591.53;4996116;28;45479;-78
2022/06/22 15:30:13;;;;;;;;;15.67;15.33;;;;;26.77;47.87;100591.94;4996968;28;47384;-75
2022/06/22 15:32:49;;;;;;;;;18.00;18.00;;;;;26.77;48.08;100597.41;4999310;28;45614;-75
2022/06/22 15:35:23;;;;;;;;;16.67;16.67;;;;;26.77;47.98;100581.06;4993148;28;49268;-74
2022/06/22 15:38:20;;;;;;;;;16.00;15.00;;;;;26.79;47.77;100590.72;4991204;28;45591;-74
2022/06/22 15:41:04;;;;;;;;;17.33;17.33;;;;;26.82;47.83;100590.31;4992134;28;45574;-76
2022/06/22 15:43:48;;;;;;;;;15.00;14.33;;;;;26.88;47.37;100598.72;5035857;28;45903;-77
2022/06/22 15:46:23;;;;;;;;;18.00;18.00;;;;;26.90;47.85;100594.81;5042137;28;49388;-77
2022/06/22 15:49:11;;;;;;;;;19.33;18.33;;;;;26.90;47.55;100592.09;5043726;28;45550;-76
2022/06/22 15:51:49;;;;;;;;;15.67;15.00;;;;;26.86;47.42;100593.50;5049528;28;46263;-77
2022/06/22 15:54:41;;;;;;;;;20.33;16.00;;;;;26.82;47.76;100595.75;5053067;28;45454;-76
2022/06/22 15:57:34;;;;;;;;;16.00;16.00;;;;;26.80;47.47;100594.25;5048134;28;46084;-78
2022/06/22 16:00:05;;;;;;;;;19.00;17.67;;;;;26.75;47.64;100586.69;5042240;28;45612;-77
2022/06/22 16:03:08;;;;;;;;;19.00;19.00;;;;;26.77;48.13;100587.31;5044089;28;46286;-79
2022/06/22 16:05:44;;;;;;;;;14.67;13.67;;;;;26.79;48.00;100577.09;5048855;28;45550;-81
2022/06/22 16:08:50;;;;;;;;;13.67;13.67;;;;;26.80;47.51;100575.19;5043031;28;45352;-80
2022/06/22 16:14:36;;;;;;;;;16.33;16.33;;;;;26.82;47.46;100564.97;5029800;28;45513;-78
2022/06/22 16:17:21;;;;;;;;;20.33;17.33;;;;;26.80;48.03;100558.88;5025191;28;45452;-78
2022/06/22 16:19:54;;;;;;;;;17.33;16.00;;;;;26.80;47.65;100558.88;5019820;28;45640;-74
2022/06/22 16:22:25;;;;;;;;;14.00;12.67;;;;;26.80;47.98;100551.56;5029891;28;45579;-74
2022/06/22 16:25:07;;;;;;;;;17.00;15.67;;;;;26.83;47.42;100548.44;5023412;28;45622;-74
2022/06/22 16:27:56;;;;;;;;;17.33;17.33;;;;;26.87;47.78;100557.06;5029891;28;45602;-74
2022/06/22 16:30:55;;;;;;;;;13.33;13.33;;;;;26.90;47.42;100550.38;5025440;28;46859;-74
2022/06/22 16:33:27;;;;;;;;;17.00;15.67;;;;;26.92;47.78;100549.16;5026154;28;45432;-74
2022/06/22 16:36:06;;;;;;;;;18.33;16.67;;;;;26.95;47.39;100547.94;5025547;28;46129;-75
2022/06/22 16:38:50;;;;;;;;;18.67;15.33;;;;;26.94;47.84;100549.00;5027119;28;45618;-77
2022/06/22 16:41:45;;;;;;;;;16.33;16.33;;;;;26.91;47.34;100544.75;5024246;28;45536;-76
2022/06/22 16:44:25;;;;;;;;;16.00;16.00;;;;;26.90;47.57;100545.78;5024192;28;45805;-78
2022/06/22 16:46:57;;;;;;;;;16.67;16.00;;;;;26.89;47.45;100541.34;5042927;28;46245;-85
2022/06/22 16:49:26;;;;;;;;;15.67;15.67;;;;;26.88;47.30;100544.28;5047723;28;45343;-81
2022/06/22 16:51:57;;;;;;;;;16.00;13.67;;;;;26.86;47.38;100549.94;5047612;28;45683;-82
2022/06/22 16:54:38;;;;;;;;;17.67;16.00;;;;;26.87;47.09;100550.75;5050776;28;45372;-81
2022/06/22 16:57:16;;;;;;;;;16.67;15.33;;;;;26.89;47.78;100554.16;5050627;28;45515;-81
2022/06/22 16:59:49;;;;;;;;;17.00;17.00;;;;;26.89;47.51;100543.25;5041832;28;45508;-82
2022/06/22 17:02:41;;;;;;;;;13.00;13.00;;;;;26.89;47.15;100543.25;5049663;28;45936;-84
2022/06/22 17:05:15;;;;;;;;;15.00;14.00;;;;;26.91;47.61;100554.78;5047233;28;45743;-79
2022/06/22 17:08:00;;;;;;;;;21.67;18.67;;;;;26.88;47.22;100552.44;5043654;28;46077;-85
2022/06/22 17:11:02;;;;;;;;;14.33;14.33;;;;;26.86;47.66;100566.28;5047665;28;45688;-85
2022/06/22 17:13:46;;;;;;;;;14.00;14.00;;;;;26.80;47.81;100547.97;5046135;28;45541;-78
2022/06/22 17:16:14;;;;;;;;;21.00;18.33;;;;;26.83;47.72;100562.06;5042063;28;45507;-76
2022/06/22 17:19:02;;;;;;;;;15.00;15.00;;;;;26.84;47.23;100571.06;5048554;28;46158;-77
2022/06/22 17:21:52;;;;;;;;;16.00;16.00;;;;;26.84;47.96;100576.50;5052154;27;45794;-74
2022/06/22 17:24:48;;;;;;;;;15.00;15.00;;;;;26.89;48.07;100581.38;5072247;28;45534;-74
2022/06/22 17:27:26;;;;;;;;;17.67;16.00;;;;;26.93;47.19;100588.97;5067457;28;45595;-75
2022/06/22 17:30:01;;;;;;;;;17.33;17.00;;;;;26.94;47.55;100587.94;5066016;27;46233;-76
2022/06/22 17:32:37;;;;;;;;;14.67;14.67;;;;;26.95;47.47;100596.97;5062081;28;45500;-76
2022/06/22 17:35:11;;;;;;;;;14.33;13.00;;;;;26.95;46.95;100596.97;5065252;27;45443;-82
2022/06/22 17:37:47;;;;;;;;;14.33;14.33;;;;;26.94;47.26;100595.28;5060686;28;46655;-80
2022/06/22 17:40:20;;;;;;;;;15.33;15.33;;;;;26.92;47.20;100592.72;5056687;28;46313;-81
2022/06/22 17:43:01;;;;;;;;;16.67;16.00;;;;;26.93;47.40;100593.56;5056526;28;45679;-83
2022/06/22 17:45:46;;;;;;;;;17.67;15.00;;;;;26.91;46.99;100584.75;5059563;28;50076;-85
2022/06/22 17:48:22;;;;;;;;;14.00;14.00;;;;;26.88;47.28;100583.25;5059551;28;45431;-87
2022/06/22 17:50:49;;;;;;;;;15.67;15.67;;;;;26.87;47.17;100578.84;5060229;28;48429;-82
2022/06/22 17:53:22;;;;;;;;;16.67;15.33;;;;;26.87;47.57;100580.72;5058631;28;45513;-79
2022/06/22 17:55:51;;;;;;;;;16.67;15.33;;;;;26.86;47.77;100588.06;5066951;28;45344;-83
2022/06/22 17:58:30;;;;;;;;;13.67;13.67;;;;;26.86;47.14;100587.22;5063788;28;45618;-79
2022/06/22 18:00:56;;;;;;;;;16.00;15.00;;;;;26.84;47.72;100585.53;5067966;28;47218;-81
2022/06/22 18:03:46;;;;;;;;;17.33;17.33;;;;;26.84;47.83;100590.13;5065734;28;45479;-79